sensor_id;sensor_type;location;lat;lon;timestamp;P1;durP1;ratioP1;P2;durP2;ratioP2
33864;SDS011;20159;51.072;13.526;2022-12-04T00:00:12;69.22;;;43.65;;
33864;SDS011;20159;51.072;13.526;2022-12-04T00:02:38;70.80;;;43.65;;
33864;SDS011;20159;51.072;13.526;2022-12-04T00:05:05;70.00;;;42.92;;
33864;SDS011;20159;51.072;13.526;2022-12-04T00:07:32;68.70;;;43.45;;
33864;SDS011;20159;51.072;13.526;2022-12-04T00:09:58;74.85;;;43.78;;
33864;SDS011;20159;51.072;13.526;2022-12-04T00:12:24;69.13;;;42.30;;
33864;SDS011;20159;51.072;13.526;2022-12-04T00:14:50;69.05;;;42.92;;
33864;SDS011;20159;51.072;13.526;2022-12-04T00:17:16;70.20;;;42.75;;
33864;SDS011;20159;51.072;13.526;2022-12-04T00:19:41;67.32;;;41.60;;
33864;SDS011;20159;51.072;13.526;2022-12-04T00:22:07;71.88;;;43.60;;
33864;SDS011;20159;51.072;13.526;2022-12-04T00:24:32;72.10;;;42.17;;
33864;SDS011;20159;51.072;13.526;2022-12-04T00:26:58;72.20;;;42.38;;
33864;SDS011;20159;51.072;13.526;2022-12-04T00:29:24;70.88;;;42.85;;
33864;SDS011;20159;51.072;13.526;2022-12-04T00:31:49;72.13;;;42.28;;
33864;SDS011;20159;51.072;13.526;2022-12-04T00:34:15;70.00;;;41.47;;
33864;SDS011;20159;51.072;13.526;2022-12-04T00:36:40;66.63;;;42.67;;
33864;SDS011;20159;51.072;13.526;2022-12-04T00:39:06;69.57;;;42.67;;
33864;SDS011;20159;51.072;13.526;2022-12-04T00:41:32;67.40;;;41.95;;
33864;SDS011;20159;51.072;13.526;2022-12-04T00:43:58;70.45;;;41.95;;
33864;SDS011;20159;51.072;13.526;2022-12-04T00:46:25;70.57;;;42.40;;
33864;SDS011;20159;51.072;13.526;2022-12-04T00:48:51;72.60;;;43.20;;
33864;SDS011;20159;51.072;13.526;2022-12-04T00:51:21;73.28;;;43.75;;
33864;SDS011;20159;51.072;13.526;2022-12-04T00:53:48;67.95;;;40.90;;
33864;SDS011;20159;51.072;13.526;2022-12-04T00:56:16;64.15;;;40.63;;
33864;SDS011;20159;51.072;13.526;2022-12-04T00:58:46;67.32;;;41.67;;
33864;SDS011;20159;51.072;13.526;2022-12-04T01:01:15;70.35;;;42.88;;
33864;SDS011;20159;51.072;13.526;2022-12-04T01:03:42;69.07;;;42.63;;
33864;SDS011;20159;51.072;13.526;2022-12-04T01:06:22;67.75;;;41.72;;
33864;SDS011;20159;51.072;13.526;2022-12-04T01:08:53;68.25;;;42.42;;
33864;SDS011;20159;51.072;13.526;2022-12-04T01:11:21;72.28;;;42.03;;
33864;SDS011;20159;51.072;13.526;2022-12-04T01:13:48;72.90;;;43.40;;
33864;SDS011;20159;51.072;13.526;2022-12-04T01:16:18;66.45;;;42.20;;
33864;SDS011;20159;51.072;13.526;2022-12-04T01:18:46;73.80;;;42.55;;
33864;SDS011;20159;51.072;13.526;2022-12-04T01:21:12;72.10;;;41.70;;
33864;SDS011;20159;51.072;13.526;2022-12-04T01:23:38;68.45;;;43.08;;
33864;SDS011;20159;51.072;13.526;2022-12-04T01:26:04;64.53;;;41.83;;
33864;SDS011;20159;51.072;13.526;2022-12-04T01:28:30;69.07;;;43.55;;
33864;SDS011;20159;51.072;13.526;2022-12-04T01:30:57;67.57;;;42.97;;
33864;SDS011;20159;51.072;13.526;2022-12-04T01:33:23;74.78;;;43.90;;
33864;SDS011;20159;51.072;13.526;2022-12-04T01:35:53;67.70;;;42.22;;
33864;SDS011;20159;51.072;13.526;2022-12-04T01:38:20;69.60;;;42.83;;
33864;SDS011;20159;51.072;13.526;2022-12-04T01:40:45;73.45;;;43.08;;
33864;SDS011;20159;51.072;13.526;2022-12-04T01:43:12;68.47;;;41.10;;
33864;SDS011;20159;51.072;13.526;2022-12-04T01:48:08;71.95;;;43.15;;
33864;SDS011;20159;51.072;13.526;2022-12-04T01:50:35;70.47;;;43.60;;
33864;SDS011;20159;51.072;13.526;2022-12-04T01:53:01;67.15;;;43.20;;
33864;SDS011;20159;51.072;13.526;2022-12-04T01:55:26;66.38;;;41.78;;
33864;SDS011;20159;51.072;13.526;2022-12-04T01:57:53;70.15;;;42.42;;
33864;SDS011;20159;51.072;13.526;2022-12-04T02:00:19;71.40;;;43.63;;
33864;SDS011;20159;51.072;13.526;2022-12-04T02:02:45;67.63;;;43.10;;
33864;SDS011;20159;51.072;13.526;2022-12-04T02:05:13;70.88;;;43.22;;
33864;SDS011;20159;51.072;13.526;2022-12-04T02:07:43;67.25;;;42.20;;
33864;SDS011;20159;51.072;13.526;2022-12-04T02:10:11;68.93;;;42.03;;
33864;SDS011;20159;51.072;13.526;2022-12-04T02:12:40;70.00;;;44.00;;
33864;SDS011;20159;51.072;13.526;2022-12-04T02:15:20;74.00;;;44.67;;
33864;SDS011;20159;51.072;13.526;2022-12-04T02:18:02;65.68;;;43.33;;
33864;SDS011;20159;51.072;13.526;2022-12-04T02:23:40;71.88;;;44.58;;
33864;SDS011;20159;51.072;13.526;2022-12-04T02:28:54;69.75;;;44.78;;
33864;SDS011;20159;51.072;13.526;2022-12-04T02:31:21;70.82;;;44.08;;
33864;SDS011;20159;51.072;13.526;2022-12-04T02:34:13;74.78;;;44.80;;
33864;SDS011;20159;51.072;13.526;2022-12-04T02:36:49;79.07;;;47.08;;
33864;SDS011;20159;51.072;13.526;2022-12-04T02:39:36;76.03;;;46.20;;
33864;SDS011;20159;51.072;13.526;2022-12-04T02:42:11;72.65;;;46.15;;
33864;SDS011;20159;51.072;13.526;2022-12-04T02:44:41;73.65;;;46.92;;
33864;SDS011;20159;51.072;13.526;2022-12-04T02:47:16;78.43;;;47.45;;
33864;SDS011;20159;51.072;13.526;2022-12-04T02:49:47;81.47;;;48.10;;
33864;SDS011;20159;51.072;13.526;2022-12-04T02:52:21;75.72;;;46.78;;
33864;SDS011;20159;51.072;13.526;2022-12-04T02:54:56;77.07;;;47.63;;
33864;SDS011;20159;51.072;13.526;2022-12-04T02:57:30;78.38;;;46.72;;
33864;SDS011;20159;51.072;13.526;2022-12-04T02:59:59;79.03;;;46.17;;
33864;SDS011;20159;51.072;13.526;2022-12-04T03:02:31;80.85;;;49.35;;
33864;SDS011;20159;51.072;13.526;2022-12-04T03:04:57;85.78;;;49.13;;
33864;SDS011;20159;51.072;13.526;2022-12-04T03:07:30;82.78;;;50.22;;
33864;SDS011;20159;51.072;13.526;2022-12-04T03:10:03;76.15;;;48.78;;
33864;SDS011;20159;51.072;13.526;2022-12-04T03:12:38;74.88;;;47.92;;
33864;SDS011;20159;51.072;13.526;2022-12-04T03:15:30;75.28;;;46.80;;
33864;SDS011;20159;51.072;13.526;2022-12-04T03:18:19;81.68;;;47.28;;
33864;SDS011;20159;51.072;13.526;2022-12-04T03:20:52;78.53;;;47.33;;
33864;SDS011;20159;51.072;13.526;2022-12-04T03:23:34;80.05;;;49.75;;
33864;SDS011;20159;51.072;13.526;2022-12-04T03:29:20;111.50;;;50.95;;
33864;SDS011;20159;51.072;13.526;2022-12-04T03:37:16;89.55;;;52.00;;
33864;SDS011;20159;51.072;13.526;2022-12-04T03:39:54;90.90;;;52.55;;
33864;SDS011;20159;51.072;13.526;2022-12-04T03:42:26;92.15;;;54.03;;
33864;SDS011;20159;51.072;13.526;2022-12-04T03:45:03;93.50;;;54.22;;
33864;SDS011;20159;51.072;13.526;2022-12-04T03:47:40;86.63;;;51.72;;
33864;SDS011;20159;51.072;13.526;2022-12-04T03:50:15;93.57;;;54.80;;
33864;SDS011;20159;51.072;13.526;2022-12-04T03:55:51;87.07;;;51.08;;
33864;SDS011;20159;51.072;13.526;2022-12-04T03:58:19;89.57;;;54.20;;
33864;SDS011;20159;51.072;13.526;2022-12-04T04:00:50;91.30;;;55.22;;
33864;SDS011;20159;51.072;13.526;2022-12-04T04:03:21;92.25;;;54.03;;
33864;SDS011;20159;51.072;13.526;2022-12-04T04:05:52;88.28;;;52.28;;
33864;SDS011;20159;51.072;13.526;2022-12-04T04:08:22;92.07;;;53.85;;
33864;SDS011;20159;51.072;13.526;2022-12-04T04:10:56;87.22;;;53.60;;
33864;SDS011;20159;51.072;13.526;2022-12-04T04:13:31;89.25;;;52.55;;
33864;SDS011;20159;51.072;13.526;2022-12-04T04:16:23;90.65;;;53.95;;
33864;SDS011;20159;51.072;13.526;2022-12-04T04:19:10;94.55;;;54.58;;
33864;SDS011;20159;51.072;13.526;2022-12-04T04:21:57;92.47;;;54.30;;
33864;SDS011;20159;51.072;13.526;2022-12-04T04:24:56;91.45;;;55.47;;
33864;SDS011;20159;51.072;13.526;2022-12-04T04:27:26;95.63;;;55.88;;
33864;SDS011;20159;51.072;13.526;2022-12-04T04:29:52;92.38;;;54.42;;
33864;SDS011;20159;51.072;13.526;2022-12-04T04:37:32;96.35;;;53.80;;
33864;SDS011;20159;51.072;13.526;2022-12-04T04:40:18;105.43;;;53.60;;
33864;SDS011;20159;51.072;13.526;2022-12-04T04:43:07;136.65;;;56.55;;
33864;SDS011;20159;51.072;13.526;2022-12-04T04:46:04;94.47;;;54.15;;
33864;SDS011;20159;51.072;13.526;2022-12-04T04:48:39;93.22;;;54.95;;
33864;SDS011;20159;51.072;13.526;2022-12-04T04:51:07;100.22;;;56.67;;
33864;SDS011;20159;51.072;13.526;2022-12-04T04:53:35;98.57;;;57.50;;
33864;SDS011;20159;51.072;13.526;2022-12-04T04:56:10;106.70;;;55.75;;
33864;SDS011;20159;51.072;13.526;2022-12-04T04:58:36;103.07;;;57.08;;
33864;SDS011;20159;51.072;13.526;2022-12-04T05:01:16;111.05;;;57.45;;
33864;SDS011;20159;51.072;13.526;2022-12-04T05:03:44;93.20;;;55.53;;
33864;SDS011;20159;51.072;13.526;2022-12-04T05:06:10;132.00;;;57.42;;
33864;SDS011;20159;51.072;13.526;2022-12-04T05:08:36;108.15;;;57.22;;
33864;SDS011;20159;51.072;13.526;2022-12-04T05:11:02;138.30;;;58.78;;
33864;SDS011;20159;51.072;13.526;2022-12-04T05:13:29;94.32;;;57.13;;
33864;SDS011;20159;51.072;13.526;2022-12-04T05:15:56;108.40;;;58.72;;
33864;SDS011;20159;51.072;13.526;2022-12-04T05:18:27;197.35;;;61.60;;
33864;SDS011;20159;51.072;13.526;2022-12-04T05:20:52;88.75;;;53.45;;
33864;SDS011;20159;51.072;13.526;2022-12-04T05:23:18;93.57;;;55.78;;
33864;SDS011;20159;51.072;13.526;2022-12-04T05:25:44;100.85;;;57.88;;
33864;SDS011;20159;51.072;13.526;2022-12-04T05:28:10;93.40;;;56.05;;
33864;SDS011;20159;51.072;13.526;2022-12-04T05:30:35;101.78;;;57.50;;
33864;SDS011;20159;51.072;13.526;2022-12-04T05:33:01;99.75;;;56.45;;
33864;SDS011;20159;51.072;13.526;2022-12-04T05:35:27;93.10;;;54.45;;
33864;SDS011;20159;51.072;13.526;2022-12-04T05:37:52;228.15;;;63.58;;
33864;SDS011;20159;51.072;13.526;2022-12-04T05:40:18;97.90;;;53.75;;
33864;SDS011;20159;51.072;13.526;2022-12-04T05:42:44;97.25;;;55.67;;
33864;SDS011;20159;51.072;13.526;2022-12-04T05:45:09;86.40;;;52.17;;
33864;SDS011;20159;51.072;13.526;2022-12-04T05:47:42;91.50;;;55.40;;
33864;SDS011;20159;51.072;13.526;2022-12-04T05:50:09;103.63;;;54.60;;
33864;SDS011;20159;51.072;13.526;2022-12-04T05:52:36;181.23;;;63.22;;
33864;SDS011;20159;51.072;13.526;2022-12-04T05:55:02;102.60;;;56.88;;
33864;SDS011;20159;51.072;13.526;2022-12-04T05:57:28;218.90;;;63.72;;
33864;SDS011;20159;51.072;13.526;2022-12-04T05:59:54;134.85;;;54.63;;
33864;SDS011;20159;51.072;13.526;2022-12-04T06:02:19;150.25;;;57.50;;
33864;SDS011;20159;51.072;13.526;2022-12-04T06:04:45;282.77;;;64.60;;
33864;SDS011;20159;51.072;13.526;2022-12-04T06:07:11;234.68;;;60.53;;
33864;SDS011;20159;51.072;13.526;2022-12-04T06:09:36;278.02;;;63.95;;
33864;SDS011;20159;51.072;13.526;2022-12-04T06:12:02;331.08;;;68.38;;
33864;SDS011;20159;51.072;13.526;2022-12-04T06:14:29;130.20;;;53.88;;
33864;SDS011;20159;51.072;13.526;2022-12-04T06:16:54;194.93;;;59.10;;
33864;SDS011;20159;51.072;13.526;2022-12-04T06:19:20;176.38;;;58.00;;
33864;SDS011;20159;51.072;13.526;2022-12-04T06:21:47;272.67;;;59.78;;
33864;SDS011;20159;51.072;13.526;2022-12-04T06:24:16;390.60;;;70.13;;
33864;SDS011;20159;51.072;13.526;2022-12-04T06:26:46;257.23;;;58.45;;
33864;SDS011;20159;51.072;13.526;2022-12-04T06:29:12;288.88;;;60.83;;
33864;SDS011;20159;51.072;13.526;2022-12-04T06:31:38;291.02;;;64.30;;
33864;SDS011;20159;51.072;13.526;2022-12-04T06:34:05;273.48;;;70.90;;
33864;SDS011;20159;51.072;13.526;2022-12-04T06:36:31;286.15;;;62.70;;
33864;SDS011;20159;51.072;13.526;2022-12-04T06:38:57;252.88;;;60.83;;
33864;SDS011;20159;51.072;13.526;2022-12-04T06:41:23;103.05;;;54.00;;
33864;SDS011;20159;51.072;13.526;2022-12-04T06:43:50;332.48;;;65.40;;
33864;SDS011;20159;51.072;13.526;2022-12-04T06:46:17;304.77;;;65.82;;
33864;SDS011;20159;51.072;13.526;2022-12-04T06:48:45;140.00;;;54.85;;
33864;SDS011;20159;51.072;13.526;2022-12-04T06:51:12;162.98;;;58.88;;
33864;SDS011;20159;51.072;13.526;2022-12-04T06:53:39;152.25;;;55.55;;
33864;SDS011;20159;51.072;13.526;2022-12-04T06:56:06;117.03;;;55.47;;
33864;SDS011;20159;51.072;13.526;2022-12-04T06:58:33;104.78;;;55.35;;
33864;SDS011;20159;51.072;13.526;2022-12-04T07:01:04;103.25;;;57.88;;
33864;SDS011;20159;51.072;13.526;2022-12-04T07:03:31;93.68;;;57.58;;
33864;SDS011;20159;51.072;13.526;2022-12-04T07:05:57;89.47;;;54.88;;
33864;SDS011;20159;51.072;13.526;2022-12-04T07:08:23;83.88;;;53.90;;
33864;SDS011;20159;51.072;13.526;2022-12-04T07:10:48;83.85;;;52.95;;
33864;SDS011;20159;51.072;13.526;2022-12-04T07:13:14;83.25;;;53.13;;
33864;SDS011;20159;51.072;13.526;2022-12-04T07:15:39;90.30;;;53.45;;
33864;SDS011;20159;51.072;13.526;2022-12-04T07:18:05;87.97;;;55.60;;
33864;SDS011;20159;51.072;13.526;2022-12-04T07:20:31;86.43;;;55.08;;
33864;SDS011;20159;51.072;13.526;2022-12-04T07:22:56;86.88;;;53.22;;
33864;SDS011;20159;51.072;13.526;2022-12-04T07:25:22;87.75;;;56.20;;
33864;SDS011;20159;51.072;13.526;2022-12-04T07:27:47;95.18;;;58.15;;
33864;SDS011;20159;51.072;13.526;2022-12-04T07:30:13;82.10;;;54.00;;
33864;SDS011;20159;51.072;13.526;2022-12-04T07:32:40;85.03;;;53.28;;
33864;SDS011;20159;51.072;13.526;2022-12-04T07:35:06;80.72;;;53.72;;
33864;SDS011;20159;51.072;13.526;2022-12-04T07:37:34;84.38;;;52.90;;
33864;SDS011;20159;51.072;13.526;2022-12-04T07:39:59;91.18;;;54.35;;
33864;SDS011;20159;51.072;13.526;2022-12-04T07:42:25;88.53;;;55.30;;
33864;SDS011;20159;51.072;13.526;2022-12-04T07:44:52;92.70;;;57.55;;
33864;SDS011;20159;51.072;13.526;2022-12-04T07:47:18;84.80;;;53.67;;
33864;SDS011;20159;51.072;13.526;2022-12-04T07:49:43;92.00;;;54.60;;
33864;SDS011;20159;51.072;13.526;2022-12-04T07:52:09;85.13;;;52.72;;
33864;SDS011;20159;51.072;13.526;2022-12-04T07:54:35;87.82;;;55.72;;
33864;SDS011;20159;51.072;13.526;2022-12-04T07:57:00;83.32;;;52.08;;
33864;SDS011;20159;51.072;13.526;2022-12-04T07:59:26;85.47;;;52.25;;
33864;SDS011;20159;51.072;13.526;2022-12-04T08:01:52;85.28;;;54.40;;
33864;SDS011;20159;51.072;13.526;2022-12-04T08:04:17;91.22;;;56.30;;
33864;SDS011;20159;51.072;13.526;2022-12-04T08:06:43;84.72;;;54.28;;
33864;SDS011;20159;51.072;13.526;2022-12-04T08:09:08;96.32;;;54.88;;
33864;SDS011;20159;51.072;13.526;2022-12-04T08:11:34;119.75;;;55.58;;
33864;SDS011;20159;51.072;13.526;2022-12-04T08:14:00;145.40;;;59.08;;
33864;SDS011;20159;51.072;13.526;2022-12-04T08:16:28;176.95;;;59.63;;
33864;SDS011;20159;51.072;13.526;2022-12-04T08:18:55;164.00;;;58.60;;
33864;SDS011;20159;51.072;13.526;2022-12-04T08:21:22;117.60;;;54.47;;
33864;SDS011;20159;51.072;13.526;2022-12-04T08:23:50;115.75;;;55.65;;
33864;SDS011;20159;51.072;13.526;2022-12-04T08:26:18;88.82;;;53.83;;
33864;SDS011;20159;51.072;13.526;2022-12-04T08:28:44;200.07;;;61.30;;
33864;SDS011;20159;51.072;13.526;2022-12-04T08:31:14;125.88;;;55.97;;
33864;SDS011;20159;51.072;13.526;2022-12-04T08:33:42;105.43;;;54.53;;
33864;SDS011;20159;51.072;13.526;2022-12-04T08:36:10;84.90;;;53.40;;
33864;SDS011;20159;51.072;13.526;2022-12-04T08:38:39;86.97;;;55.40;;
33864;SDS011;20159;51.072;13.526;2022-12-04T08:41:05;84.90;;;53.72;;
33864;SDS011;20159;51.072;13.526;2022-12-04T08:43:33;86.32;;;54.15;;
33864;SDS011;20159;51.072;13.526;2022-12-04T08:45:59;126.72;;;56.72;;
33864;SDS011;20159;51.072;13.526;2022-12-04T08:48:26;92.95;;;55.30;;
33864;SDS011;20159;51.072;13.526;2022-12-04T08:50:52;91.70;;;55.80;;
33864;SDS011;20159;51.072;13.526;2022-12-04T08:53:19;100.55;;;54.90;;
33864;SDS011;20159;51.072;13.526;2022-12-04T08:55:45;100.93;;;55.88;;
33864;SDS011;20159;51.072;13.526;2022-12-04T08:58:11;127.53;;;58.25;;
33864;SDS011;20159;51.072;13.526;2022-12-04T09:00:37;137.82;;;57.08;;
33864;SDS011;20159;51.072;13.526;2022-12-04T09:03:03;156.18;;;59.95;;
33864;SDS011;20159;51.072;13.526;2022-12-04T09:05:29;132.65;;;59.88;;
33864;SDS011;20159;51.072;13.526;2022-12-04T09:07:55;192.02;;;62.17;;
33864;SDS011;20159;51.072;13.526;2022-12-04T09:10:20;204.20;;;63.35;;
33864;SDS011;20159;51.072;13.526;2022-12-04T09:12:46;153.68;;;61.53;;
33864;SDS011;20159;51.072;13.526;2022-12-04T09:15:12;170.80;;;63.95;;
33864;SDS011;20159;51.072;13.526;2022-12-04T09:17:38;99.30;;;57.30;;
33864;SDS011;20159;51.072;13.526;2022-12-04T09:20:03;188.73;;;60.75;;
33864;SDS011;20159;51.072;13.526;2022-12-04T09:22:32;172.82;;;63.13;;
33864;SDS011;20159;51.072;13.526;2022-12-04T09:24:58;184.45;;;67.72;;
33864;SDS011;20159;51.072;13.526;2022-12-04T09:27:24;115.00;;;62.00;;
33864;SDS011;20159;51.072;13.526;2022-12-04T09:29:49;91.53;;;58.70;;
33864;SDS011;20159;51.072;13.526;2022-12-04T09:32:15;142.95;;;65.15;;
33864;SDS011;20159;51.072;13.526;2022-12-04T09:34:40;187.02;;;66.43;;
33864;SDS011;20159;51.072;13.526;2022-12-04T09:37:06;190.48;;;67.70;;
33864;SDS011;20159;51.072;13.526;2022-12-04T09:39:31;151.48;;;64.60;;
33864;SDS011;20159;51.072;13.526;2022-12-04T09:42:02;126.55;;;63.47;;
33864;SDS011;20159;51.072;13.526;2022-12-04T09:47:20;105.22;;;61.58;;
33864;SDS011;20159;51.072;13.526;2022-12-04T09:50:04;124.13;;;66.60;;
33864;SDS011;20159;51.072;13.526;2022-12-04T09:55:21;131.10;;;65.43;;
33864;SDS011;20159;51.072;13.526;2022-12-04T09:57:50;172.20;;;66.13;;
33864;SDS011;20159;51.072;13.526;2022-12-04T10:00:18;120.25;;;62.47;;
33864;SDS011;20159;51.072;13.526;2022-12-04T10:02:51;224.60;;;69.60;;
33864;SDS011;20159;51.072;13.526;2022-12-04T10:08:06;119.57;;;60.97;;
33864;SDS011;20159;51.072;13.526;2022-12-04T10:10:39;100.18;;;59.45;;
33864;SDS011;20159;51.072;13.526;2022-12-04T10:15:47;101.78;;;61.20;;
33864;SDS011;20159;51.072;13.526;2022-12-04T10:18:49;108.65;;;59.95;;
33864;SDS011;20159;51.072;13.526;2022-12-04T10:21:46;93.35;;;58.05;;
33864;SDS011;20159;51.072;13.526;2022-12-04T10:27:11;91.22;;;56.85;;
33864;SDS011;20159;51.072;13.526;2022-12-04T10:29:47;124.28;;;64.20;;
33864;SDS011;20159;51.072;13.526;2022-12-04T10:32:24;100.07;;;61.83;;
33864;SDS011;20159;51.072;13.526;2022-12-04T10:34:55;91.30;;;60.70;;
33864;SDS011;20159;51.072;13.526;2022-12-04T10:37:23;95.45;;;60.65;;
33864;SDS011;20159;51.072;13.526;2022-12-04T10:39:52;96.38;;;62.45;;
33864;SDS011;20159;51.072;13.526;2022-12-04T10:45:22;96.05;;;62.33;;
33864;SDS011;20159;51.072;13.526;2022-12-04T10:47:48;99.40;;;61.88;;
33864;SDS011;20159;51.072;13.526;2022-12-04T10:50:20;99.13;;;61.65;;
33864;SDS011;20159;51.072;13.526;2022-12-04T10:52:48;90.78;;;59.20;;
33864;SDS011;20159;51.072;13.526;2022-12-04T10:55:14;97.45;;;62.75;;
33864;SDS011;20159;51.072;13.526;2022-12-04T10:57:50;94.50;;;62.10;;
33864;SDS011;20159;51.072;13.526;2022-12-04T11:00:27;108.95;;;72.63;;
33864;SDS011;20159;51.072;13.526;2022-12-04T11:02:54;113.38;;;76.07;;
33864;SDS011;20159;51.072;13.526;2022-12-04T11:07:50;104.93;;;70.13;;
33864;SDS011;20159;51.072;13.526;2022-12-04T11:10:30;102.10;;;65.22;;
33864;SDS011;20159;51.072;13.526;2022-12-04T11:13:03;100.32;;;66.30;;
33864;SDS011;20159;51.072;13.526;2022-12-04T11:15:34;97.93;;;66.72;;
33864;SDS011;20159;51.072;13.526;2022-12-04T11:18:12;100.25;;;66.53;;
33864;SDS011;20159;51.072;13.526;2022-12-04T11:20:43;95.88;;;62.97;;
33864;SDS011;20159;51.072;13.526;2022-12-04T11:23:18;96.95;;;64.35;;
33864;SDS011;20159;51.072;13.526;2022-12-04T11:25:45;97.57;;;63.13;;
33864;SDS011;20159;51.072;13.526;2022-12-04T11:28:16;104.35;;;64.65;;
33864;SDS011;20159;51.072;13.526;2022-12-04T11:30:46;97.18;;;62.05;;
33864;SDS011;20159;51.072;13.526;2022-12-04T11:33:27;94.80;;;60.85;;
33864;SDS011;20159;51.072;13.526;2022-12-04T11:35:53;94.35;;;60.78;;
33864;SDS011;20159;51.072;13.526;2022-12-04T11:38:24;95.07;;;62.30;;
33864;SDS011;20159;51.072;13.526;2022-12-04T11:40:53;98.72;;;62.60;;
33864;SDS011;20159;51.072;13.526;2022-12-04T11:43:23;101.40;;;63.15;;
33864;SDS011;20159;51.072;13.526;2022-12-04T11:48:22;100.63;;;66.63;;
33864;SDS011;20159;51.072;13.526;2022-12-04T11:50:51;109.25;;;65.70;;
33864;SDS011;20159;51.072;13.526;2022-12-04T12:09:41;110.13;;;71.30;;
33864;SDS011;20159;51.072;13.526;2022-12-04T12:15:40;101.90;;;65.55;;
33864;SDS011;20159;51.072;13.526;2022-12-04T12:29:24;112.38;;;68.35;;
33864;SDS011;20159;51.072;13.526;2022-12-04T12:34:44;101.40;;;64.30;;
33864;SDS011;20159;51.072;13.526;2022-12-04T12:37:15;101.40;;;66.32;;
33864;SDS011;20159;51.072;13.526;2022-12-04T12:39:55;99.78;;;64.47;;
33864;SDS011;20159;51.072;13.526;2022-12-04T12:42:39;104.03;;;65.55;;
33864;SDS011;20159;51.072;13.526;2022-12-04T12:45:19;101.88;;;63.67;;
33864;SDS011;20159;51.072;13.526;2022-12-04T12:48:48;102.80;;;63.15;;
33864;SDS011;20159;51.072;13.526;2022-12-04T12:51:17;94.53;;;61.58;;
33864;SDS011;20159;51.072;13.526;2022-12-04T12:53:50;98.28;;;62.60;;
33864;SDS011;20159;51.072;13.526;2022-12-04T12:56:21;97.53;;;62.80;;
33864;SDS011;20159;51.072;13.526;2022-12-04T12:58:56;89.35;;;61.35;;
33864;SDS011;20159;51.072;13.526;2022-12-04T13:06:39;102.57;;;63.00;;
33864;SDS011;20159;51.072;13.526;2022-12-04T13:09:23;96.50;;;61.40;;
33864;SDS011;20159;51.072;13.526;2022-12-04T13:11:57;95.32;;;60.28;;
33864;SDS011;20159;51.072;13.526;2022-12-04T13:14:25;99.78;;;62.42;;
33864;SDS011;20159;51.072;13.526;2022-12-04T13:16:52;98.60;;;63.95;;
33864;SDS011;20159;51.072;13.526;2022-12-04T13:19:36;96.07;;;64.82;;
33864;SDS011;20159;51.072;13.526;2022-12-04T13:22:15;98.85;;;62.35;;
33864;SDS011;20159;51.072;13.526;2022-12-04T13:27:48;93.63;;;62.15;;
33864;SDS011;20159;51.072;13.526;2022-12-04T13:30:38;90.83;;;60.20;;
33864;SDS011;20159;51.072;13.526;2022-12-04T13:36:07;89.18;;;59.08;;
33864;SDS011;20159;51.072;13.526;2022-12-04T13:39:01;90.80;;;58.47;;
33864;SDS011;20159;51.072;13.526;2022-12-04T13:41:42;84.30;;;54.80;;
33864;SDS011;20159;51.072;13.526;2022-12-04T13:44:17;92.97;;;57.20;;
33864;SDS011;20159;51.072;13.526;2022-12-04T13:46:56;81.25;;;57.63;;
33864;SDS011;20159;51.072;13.526;2022-12-04T13:49:28;84.20;;;56.97;;
33864;SDS011;20159;51.072;13.526;2022-12-04T13:51:59;87.57;;;58.25;;
33864;SDS011;20159;51.072;13.526;2022-12-04T13:57:08;81.55;;;55.70;;
33864;SDS011;20159;51.072;13.526;2022-12-04T13:59:36;83.85;;;55.72;;
33864;SDS011;20159;51.072;13.526;2022-12-04T14:02:19;84.35;;;56.10;;
33864;SDS011;20159;51.072;13.526;2022-12-04T14:05:01;87.30;;;55.88;;
33864;SDS011;20159;51.072;13.526;2022-12-04T14:10:06;80.88;;;55.25;;
33864;SDS011;20159;51.072;13.526;2022-12-04T14:13:00;81.25;;;53.88;;
33864;SDS011;20159;51.072;13.526;2022-12-04T14:15:30;81.15;;;56.30;;
33864;SDS011;20159;51.072;13.526;2022-12-04T14:18:04;75.18;;;52.20;;
33864;SDS011;20159;51.072;13.526;2022-12-04T14:20:37;74.60;;;51.28;;
33864;SDS011;20159;51.072;13.526;2022-12-04T14:23:06;77.35;;;53.38;;
33864;SDS011;20159;51.072;13.526;2022-12-04T14:25:37;70.05;;;50.38;;
33864;SDS011;20159;51.072;13.526;2022-12-04T14:28:21;73.38;;;51.28;;
33864;SDS011;20159;51.072;13.526;2022-12-04T14:33:32;73.95;;;51.00;;
33864;SDS011;20159;51.072;13.526;2022-12-04T14:36:09;78.38;;;53.05;;
33864;SDS011;20159;51.072;13.526;2022-12-04T14:38:43;83.60;;;56.90;;
33864;SDS011;20159;51.072;13.526;2022-12-04T14:41:11;82.07;;;54.58;;
33864;SDS011;20159;51.072;13.526;2022-12-04T14:43:37;81.88;;;56.90;;
33864;SDS011;20159;51.072;13.526;2022-12-04T14:53:58;91.00;;;62.50;;
33864;SDS011;20159;51.072;13.526;2022-12-04T14:56:49;87.65;;;59.90;;
33864;SDS011;20159;51.072;13.526;2022-12-04T14:59:20;82.15;;;56.28;;
33864;SDS011;20159;51.072;13.526;2022-12-04T15:01:48;83.82;;;57.03;;
33864;SDS011;20159;51.072;13.526;2022-12-04T15:06:48;89.72;;;60.40;;
33864;SDS011;20159;51.072;13.526;2022-12-04T15:09:19;82.97;;;55.50;;
33864;SDS011;20159;51.072;13.526;2022-12-04T15:15:18;88.78;;;59.13;;
33864;SDS011;20159;51.072;13.526;2022-12-04T15:17:54;79.57;;;54.58;;
33864;SDS011;20159;51.072;13.526;2022-12-04T15:23:15;84.35;;;56.55;;
33864;SDS011;20159;51.072;13.526;2022-12-04T15:25:45;78.15;;;53.03;;
33864;SDS011;20159;51.072;13.526;2022-12-04T15:28:15;89.78;;;58.90;;
33864;SDS011;20159;51.072;13.526;2022-12-04T15:30:49;85.32;;;57.67;;
33864;SDS011;20159;51.072;13.526;2022-12-04T15:33:17;87.70;;;57.33;;
33864;SDS011;20159;51.072;13.526;2022-12-04T15:35:46;78.45;;;54.00;;
33864;SDS011;20159;51.072;13.526;2022-12-04T15:38:15;81.32;;;54.20;;
33864;SDS011;20159;51.072;13.526;2022-12-04T15:43:52;79.65;;;54.67;;
33864;SDS011;20159;51.072;13.526;2022-12-04T15:46:22;86.75;;;56.13;;
33864;SDS011;20159;51.072;13.526;2022-12-04T15:49:06;79.78;;;54.83;;
33864;SDS011;20159;51.072;13.526;2022-12-04T15:51:40;78.72;;;54.05;;
33864;SDS011;20159;51.072;13.526;2022-12-04T15:54:26;80.35;;;53.47;;
33864;SDS011;20159;51.072;13.526;2022-12-04T15:56:58;75.93;;;52.60;;
33864;SDS011;20159;51.072;13.526;2022-12-04T15:59:37;78.13;;;53.28;;
33864;SDS011;20159;51.072;13.526;2022-12-04T16:02:05;83.80;;;54.58;;
33864;SDS011;20159;51.072;13.526;2022-12-04T16:04:45;81.90;;;54.58;;
33864;SDS011;20159;51.072;13.526;2022-12-04T16:07:24;84.05;;;55.45;;
33864;SDS011;20159;51.072;13.526;2022-12-04T16:09:53;85.45;;;57.00;;
33864;SDS011;20159;51.072;13.526;2022-12-04T16:12:24;84.03;;;55.42;;
33864;SDS011;20159;51.072;13.526;2022-12-04T16:14:52;86.38;;;55.15;;
33864;SDS011;20159;51.072;13.526;2022-12-04T16:17:19;85.43;;;55.20;;
33864;SDS011;20159;51.072;13.526;2022-12-04T16:19:47;78.90;;;54.25;;
33864;SDS011;20159;51.072;13.526;2022-12-04T16:22:17;86.50;;;56.08;;
33864;SDS011;20159;51.072;13.526;2022-12-04T16:24:44;82.47;;;54.70;;